sensor_id;sensor_type;location;lat;lon;timestamp;P1;durP1;ratioP1;P2;durP2;ratioP2
49510;SDS011;35413;48.776;9.204;2022-12-20T00:02:14;4.75;;;2.83;;
49510;SDS011;35413;48.776;9.204;2022-12-20T00:04:40;4.55;;;3.10;;
49510;SDS011;35413;48.776;9.204;2022-12-20T00:07:06;5.57;;;3.25;;
49510;SDS011;35413;48.776;9.204;2022-12-20T00:09:32;7.30;;;3.40;;
49510;SDS011;35413;48.776;9.204;2022-12-20T00:11:58;4.68;;;2.70;;
49510;SDS011;35413;48.776;9.204;2022-12-20T00:14:24;5.05;;;2.92;;
49510;SDS011;35413;48.776;9.204;2022-12-20T00:16:50;3.70;;;2.70;;
49510;SDS011;35413;48.776;9.204;2022-12-20T00:19:16;3.75;;;2.63;;
49510;SDS011;35413;48.776;9.204;2022-12-20T00:21:42;4.13;;;2.78;;
49510;SDS011;35413;48.776;9.204;2022-12-20T00:24:08;4.85;;;2.80;;
49510;SDS011;35413;48.776;9.204;2022-12-20T00:26:34;5.07;;;3.42;;
49510;SDS011;35413;48.776;9.204;2022-12-20T00:29:02;4.20;;;2.83;;
49510;SDS011;35413;48.776;9.204;2022-12-20T00:31:29;4.93;;;3.10;;
49510;SDS011;35413;48.776;9.204;2022-12-20T00:33:56;6.28;;;3.47;;
49510;SDS011;35413;48.776;9.204;2022-12-20T00:36:23;5.88;;;3.60;;
49510;SDS011;35413;48.776;9.204;2022-12-20T00:38:50;4.90;;;2.63;;
49510;SDS011;35413;48.776;9.204;2022-12-20T00:41:17;4.60;;;3.25;;
49510;SDS011;35413;48.776;9.204;2022-12-20T00:43:44;4.88;;;3.00;;
49510;SDS011;35413;48.776;9.204;2022-12-20T00:46:11;6.65;;;3.25;;
49510;SDS011;35413;48.776;9.204;2022-12-20T00:48:37;4.70;;;3.30;;
49510;SDS011;35413;48.776;9.204;2022-12-20T00:51:04;4.65;;;3.28;;
49510;SDS011;35413;48.776;9.204;2022-12-20T00:53:31;3.60;;;2.65;;
49510;SDS011;35413;48.776;9.204;2022-12-20T00:55:57;4.50;;;2.92;;
49510;SDS011;35413;48.776;9.204;2022-12-20T00:58:23;4.72;;;3.03;;
49510;SDS011;35413;48.776;9.204;2022-12-20T01:00:49;4.70;;;3.10;;
49510;SDS011;35413;48.776;9.204;2022-12-20T01:03:15;4.93;;;3.00;;
49510;SDS011;35413;48.776;9.204;2022-12-20T01:05:51;3.40;;;2.80;;
49510;SDS011;35413;48.776;9.204;2022-12-20T01:08:17;4.53;;;2.88;;
49510;SDS011;35413;48.776;9.204;2022-12-20T01:10:43;4.38;;;3.20;;
49510;SDS011;35413;48.776;9.204;2022-12-20T01:13:09;5.25;;;3.58;;
49510;SDS011;35413;48.776;9.204;2022-12-20T01:15:35;4.30;;;3.10;;
49510;SDS011;35413;48.776;9.204;2022-12-20T01:18:01;4.55;;;3.00;;
49510;SDS011;35413;48.776;9.204;2022-12-20T01:20:27;3.80;;;2.45;;
49510;SDS011;35413;48.776;9.204;2022-12-20T01:22:53;4.43;;;3.30;;
49510;SDS011;35413;48.776;9.204;2022-12-20T01:25:19;2.97;;;2.50;;
49510;SDS011;35413;48.776;9.204;2022-12-20T01:27:45;3.63;;;2.85;;
49510;SDS011;35413;48.776;9.204;2022-12-20T01:30:11;4.50;;;2.90;;
49510;SDS011;35413;48.776;9.204;2022-12-20T01:32:37;4.85;;;3.10;;
49510;SDS011;35413;48.776;9.204;2022-12-20T01:35:03;4.57;;;2.97;;
49510;SDS011;35413;48.776;9.204;2022-12-20T01:37:29;4.78;;;3.25;;
49510;SDS011;35413;48.776;9.204;2022-12-20T01:39:56;3.28;;;2.58;;
49510;SDS011;35413;48.776;9.204;2022-12-20T01:42:22;4.30;;;3.03;;
49510;SDS011;35413;48.776;9.204;2022-12-20T01:44:50;4.38;;;3.05;;
49510;SDS011;35413;48.776;9.204;2022-12-20T01:47:17;5.10;;;3.35;;
49510;SDS011;35413;48.776;9.204;2022-12-20T01:49:44;3.63;;;2.90;;
49510;SDS011;35413;48.776;9.204;2022-12-20T01:52:18;5.97;;;3.67;;
49510;SDS011;35413;48.776;9.204;2022-12-20T01:57:45;3.80;;;2.97;;
49510;SDS011;35413;48.776;9.204;2022-12-20T02:00:13;4.28;;;2.85;;
49510;SDS011;35413;48.776;9.204;2022-12-20T02:02:40;4.65;;;2.90;;
49510;SDS011;35413;48.776;9.204;2022-12-20T02:05:07;4.18;;;3.10;;
49510;SDS011;35413;48.776;9.204;2022-12-20T02:07:34;4.13;;;3.08;;
49510;SDS011;35413;48.776;9.204;2022-12-20T02:10:00;5.22;;;3.28;;
49510;SDS011;35413;48.776;9.204;2022-12-20T02:12:37;4.65;;;3.08;;
49510;SDS011;35413;48.776;9.204;2022-12-20T02:17:43;4.43;;;3.42;;
49510;SDS011;35413;48.776;9.204;2022-12-20T02:25:26;4.03;;;3.08;;
49510;SDS011;35413;48.776;9.204;2022-12-20T02:31:02;5.60;;;2.97;;
49510;SDS011;35413;48.776;9.204;2022-12-20T02:33:30;3.88;;;3.20;;
49510;SDS011;35413;48.776;9.204;2022-12-20T02:35:56;4.15;;;3.00;;
49510;SDS011;35413;48.776;9.204;2022-12-20T02:38:29;4.45;;;2.88;;
49510;SDS011;35413;48.776;9.204;2022-12-20T02:40:57;4.65;;;2.60;;
49510;SDS011;35413;48.776;9.204;2022-12-20T02:43:23;4.00;;;2.80;;
49510;SDS011;35413;48.776;9.204;2022-12-20T02:46:08;4.35;;;3.15;;
49510;SDS011;35413;48.776;9.204;2022-12-20T02:48:35;3.80;;;2.90;;
49510;SDS011;35413;48.776;9.204;2022-12-20T02:51:02;6.13;;;3.67;;
49510;SDS011;35413;48.776;9.204;2022-12-20T02:53:28;4.50;;;2.97;;
49510;SDS011;35413;48.776;9.204;2022-12-20T02:55:59;4.45;;;3.03;;
49510;SDS011;35413;48.776;9.204;2022-12-20T02:58:32;3.97;;;3.22;;
49510;SDS011;35413;48.776;9.204;2022-12-20T03:01:00;3.85;;;2.90;;
49510;SDS011;35413;48.776;9.204;2022-12-20T03:03:28;4.10;;;2.97;;
49510;SDS011;35413;48.776;9.204;2022-12-20T03:05:54;3.78;;;2.83;;
49510;SDS011;35413;48.776;9.204;2022-12-20T03:08:21;3.75;;;2.65;;
49510;SDS011;35413;48.776;9.204;2022-12-20T03:10:48;5.50;;;3.20;;
49510;SDS011;35413;48.776;9.204;2022-12-20T03:13:14;4.57;;;2.70;;
49510;SDS011;35413;48.776;9.204;2022-12-20T03:15:40;5.13;;;3.30;;
49510;SDS011;35413;48.776;9.204;2022-12-20T03:18:06;4.68;;;3.15;;
49510;SDS011;35413;48.776;9.204;2022-12-20T03:20:32;3.25;;;2.42;;
49510;SDS011;35413;48.776;9.204;2022-12-20T03:22:58;3.70;;;2.85;;
49510;SDS011;35413;48.776;9.204;2022-12-20T03:25:24;4.00;;;2.90;;
49510;SDS011;35413;48.776;9.204;2022-12-20T03:27:51;5.45;;;3.20;;
49510;SDS011;35413;48.776;9.204;2022-12-20T03:30:17;4.60;;;3.60;;
49510;SDS011;35413;48.776;9.204;2022-12-20T03:32:43;4.13;;;3.25;;
49510;SDS011;35413;48.776;9.204;2022-12-20T03:35:09;3.97;;;2.50;;
49510;SDS011;35413;48.776;9.204;2022-12-20T03:37:35;4.18;;;2.92;;
49510;SDS011;35413;48.776;9.204;2022-12-20T03:40:01;4.00;;;2.97;;
49510;SDS011;35413;48.776;9.204;2022-12-20T03:42:27;4.43;;;2.92;;
49510;SDS011;35413;48.776;9.204;2022-12-20T03:44:53;4.55;;;2.72;;
49510;SDS011;35413;48.776;9.204;2022-12-20T03:47:19;4.00;;;2.75;;
49510;SDS011;35413;48.776;9.204;2022-12-20T03:49:45;3.30;;;2.45;;
49510;SDS011;35413;48.776;9.204;2022-12-20T03:52:11;5.03;;;3.20;;
49510;SDS011;35413;48.776;9.204;2022-12-20T03:54:37;3.35;;;2.53;;
49510;SDS011;35413;48.776;9.204;2022-12-20T03:57:04;3.67;;;2.75;;
49510;SDS011;35413;48.776;9.204;2022-12-20T03:59:30;4.07;;;2.95;;
49510;SDS011;35413;48.776;9.204;2022-12-20T04:01:56;4.30;;;3.00;;
49510;SDS011;35413;48.776;9.204;2022-12-20T04:04:22;3.30;;;2.60;;
49510;SDS011;35413;48.776;9.204;2022-12-20T04:06:48;4.32;;;2.90;;
49510;SDS011;35413;48.776;9.204;2022-12-20T04:09:14;4.63;;;3.58;;
49510;SDS011;35413;48.776;9.204;2022-12-20T04:11:40;5.05;;;2.70;;
49510;SDS011;35413;48.776;9.204;2022-12-20T04:14:06;4.97;;;3.30;;
49510;SDS011;35413;48.776;9.204;2022-12-20T04:16:35;3.63;;;2.85;;
49510;SDS011;35413;48.776;9.204;2022-12-20T04:19:04;4.07;;;3.00;;
49510;SDS011;35413;48.776;9.204;2022-12-20T04:21:33;5.05;;;3.33;;
49510;SDS011;35413;48.776;9.204;2022-12-20T04:24:00;4.07;;;2.95;;
49510;SDS011;35413;48.776;9.204;2022-12-20T04:26:26;4.05;;;2.75;;
49510;SDS011;35413;48.776;9.204;2022-12-20T04:28:52;4.20;;;3.10;;
49510;SDS011;35413;48.776;9.204;2022-12-20T04:31:19;5.35;;;2.90;;
49510;SDS011;35413;48.776;9.204;2022-12-20T04:33:45;3.97;;;2.83;;
49510;SDS011;35413;48.776;9.204;2022-12-20T04:36:12;3.60;;;3.00;;
49510;SDS011;35413;48.776;9.204;2022-12-20T04:38:41;3.67;;;2.83;;
49510;SDS011;35413;48.776;9.204;2022-12-20T04:41:07;3.78;;;3.03;;
49510;SDS011;35413;48.776;9.204;2022-12-20T04:43:33;4.60;;;2.80;;
49510;SDS011;35413;48.776;9.204;2022-12-20T04:45:59;4.32;;;3.35;;
49510;SDS011;35413;48.776;9.204;2022-12-20T04:48:25;4.43;;;3.10;;
49510;SDS011;35413;48.776;9.204;2022-12-20T04:50:53;3.58;;;2.60;;
49510;SDS011;35413;48.776;9.204;2022-12-20T04:53:19;3.10;;;2.65;;
49510;SDS011;35413;48.776;9.204;2022-12-20T04:56:04;3.67;;;2.65;;
49510;SDS011;35413;48.776;9.204;2022-12-20T04:58:30;4.40;;;3.10;;
49510;SDS011;35413;48.776;9.204;2022-12-20T05:00:56;4.22;;;2.47;;
49510;SDS011;35413;48.776;9.204;2022-12-20T05:03:23;4.10;;;3.42;;
49510;SDS011;35413;48.776;9.204;2022-12-20T05:05:49;4.07;;;2.67;;
49510;SDS011;35413;48.776;9.204;2022-12-20T05:08:15;4.00;;;3.13;;
49510;SDS011;35413;48.776;9.204;2022-12-20T05:10:42;3.85;;;2.40;;
49510;SDS011;35413;48.776;9.204;2022-12-20T05:13:08;5.25;;;2.90;;
49510;SDS011;35413;48.776;9.204;2022-12-20T05:15:34;4.18;;;2.53;;
49510;SDS011;35413;48.776;9.204;2022-12-20T05:18:00;3.97;;;3.25;;
49510;SDS011;35413;48.776;9.204;2022-12-20T05:20:27;4.63;;;2.78;;
49510;SDS011;35413;48.776;9.204;2022-12-20T05:22:53;3.65;;;2.58;;
49510;SDS011;35413;48.776;9.204;2022-12-20T05:25:42;3.50;;;2.90;;
49510;SDS011;35413;48.776;9.204;2022-12-20T05:28:27;3.67;;;2.80;;
49510;SDS011;35413;48.776;9.204;2022-12-20T05:30:53;3.70;;;2.75;;
49510;SDS011;35413;48.776;9.204;2022-12-20T05:33:19;3.70;;;2.95;;
49510;SDS011;35413;48.776;9.204;2022-12-20T05:35:45;5.50;;;2.78;;
49510;SDS011;35413;48.776;9.204;2022-12-20T05:38:11;3.65;;;2.60;;
49510;SDS011;35413;48.776;9.204;2022-12-20T05:40:37;3.38;;;2.78;;
49510;SDS011;35413;48.776;9.204;2022-12-20T05:43:04;3.97;;;2.78;;
49510;SDS011;35413;48.776;9.204;2022-12-20T05:45:30;4.82;;;2.70;;
49510;SDS011;35413;48.776;9.204;2022-12-20T05:47:56;3.72;;;2.70;;
49510;SDS011;35413;48.776;9.204;2022-12-20T05:50:22;4.00;;;3.10;;
49510;SDS011;35413;48.776;9.204;2022-12-20T05:52:48;3.60;;;2.33;;
49510;SDS011;35413;48.776;9.204;2022-12-20T05:55:14;4.25;;;3.17;;
49510;SDS011;35413;48.776;9.204;2022-12-20T05:57:40;4.50;;;3.03;;
49510;SDS011;35413;48.776;9.204;2022-12-20T06:00:06;3.35;;;2.47;;
49510;SDS011;35413;48.776;9.204;2022-12-20T06:02:32;6.85;;;3.25;;
49510;SDS011;35413;48.776;9.204;2022-12-20T06:04:58;3.25;;;2.60;;
49510;SDS011;35413;48.776;9.204;2022-12-20T06:07:25;4.05;;;2.63;;
49510;SDS011;35413;48.776;9.204;2022-12-20T06:09:53;3.47;;;2.53;;
49510;SDS011;35413;48.776;9.204;2022-12-20T06:12:19;3.72;;;2.90;;
49510;SDS011;35413;48.776;9.204;2022-12-20T06:14:45;4.78;;;3.05;;
49510;SDS011;35413;48.776;9.204;2022-12-20T06:17:11;3.58;;;2.30;;
49510;SDS011;35413;48.776;9.204;2022-12-20T06:19:37;4.10;;;2.80;;
49510;SDS011;35413;48.776;9.204;2022-12-20T06:22:06;3.88;;;2.80;;
49510;SDS011;35413;48.776;9.204;2022-12-20T06:24:33;5.35;;;2.80;;
49510;SDS011;35413;48.776;9.204;2022-12-20T06:26:59;4.22;;;2.63;;
49510;SDS011;35413;48.776;9.204;2022-12-20T06:29:25;3.35;;;2.63;;
49510;SDS011;35413;48.776;9.204;2022-12-20T06:31:51;3.92;;;2.83;;
49510;SDS011;35413;48.776;9.204;2022-12-20T06:34:17;3.50;;;2.45;;
49510;SDS011;35413;48.776;9.204;2022-12-20T06:36:44;3.35;;;2.30;;
49510;SDS011;35413;48.776;9.204;2022-12-20T06:39:10;3.38;;;2.45;;
49510;SDS011;35413;48.776;9.204;2022-12-20T06:41:39;5.22;;;2.90;;
49510;SDS011;35413;48.776;9.204;2022-12-20T06:44:05;2.97;;;2.25;;
49510;SDS011;35413;48.776;9.204;2022-12-20T06:46:32;4.05;;;2.92;;
49510;SDS011;35413;48.776;9.204;2022-12-20T06:48:58;4.07;;;3.05;;
49510;SDS011;35413;48.776;9.204;2022-12-20T06:51:24;4.93;;;2.65;;
49510;SDS011;35413;48.776;9.204;2022-12-20T06:53:50;4.25;;;2.90;;
49510;SDS011;35413;48.776;9.204;2022-12-20T06:56:16;3.13;;;2.50;;
49510;SDS011;35413;48.776;9.204;2022-12-20T06:58:43;3.45;;;2.60;;
49510;SDS011;35413;48.776;9.204;2022-12-20T07:01:10;4.15;;;2.70;;
49510;SDS011;35413;48.776;9.204;2022-12-20T07:03:36;4.38;;;2.60;;
49510;SDS011;35413;48.776;9.204;2022-12-20T07:06:02;5.53;;;3.55;;
49510;SDS011;35413;48.776;9.204;2022-12-20T07:08:28;3.40;;;2.35;;
49510;SDS011;35413;48.776;9.204;2022-12-20T07:10:54;3.90;;;2.58;;
49510;SDS011;35413;48.776;9.204;2022-12-20T07:13:21;3.03;;;2.60;;
49510;SDS011;35413;48.776;9.204;2022-12-20T07:15:47;3.90;;;2.63;;
49510;SDS011;35413;48.776;9.204;2022-12-20T07:18:13;3.92;;;2.58;;
49510;SDS011;35413;48.776;9.204;2022-12-20T07:20:39;4.30;;;2.97;;
49510;SDS011;35413;48.776;9.204;2022-12-20T07:23:05;3.90;;;2.50;;
49510;SDS011;35413;48.776;9.204;2022-12-20T07:25:31;4.72;;;3.50;;
49510;SDS011;35413;48.776;9.204;2022-12-20T07:27:57;4.50;;;3.42;;
49510;SDS011;35413;48.776;9.204;2022-12-20T07:30:23;4.68;;;2.30;;
49510;SDS011;35413;48.776;9.204;2022-12-20T07:32:49;5.13;;;3.10;;
49510;SDS011;35413;48.776;9.204;2022-12-20T07:35:15;4.18;;;2.70;;
49510;SDS011;35413;48.776;9.204;2022-12-20T07:37:41;4.32;;;2.30;;
49510;SDS011;35413;48.776;9.204;2022-12-20T07:40:07;6.47;;;2.90;;
49510;SDS011;35413;48.776;9.204;2022-12-20T07:42:33;7.57;;;2.95;;
49510;SDS011;35413;48.776;9.204;2022-12-20T07:44:59;5.80;;;3.40;;
49510;SDS011;35413;48.776;9.204;2022-12-20T07:47:25;4.60;;;2.90;;
49510;SDS011;35413;48.776;9.204;2022-12-20T07:49:51;7.88;;;3.53;;
49510;SDS011;35413;48.776;9.204;2022-12-20T07:52:20;7.78;;;3.50;;
49510;SDS011;35413;48.776;9.204;2022-12-20T07:54:49;7.03;;;3.50;;
49510;SDS011;35413;48.776;9.204;2022-12-20T07:57:22;8.57;;;3.28;;
49510;SDS011;35413;48.776;9.204;2022-12-20T07:59:50;6.32;;;2.95;;
49510;SDS011;35413;48.776;9.204;2022-12-20T08:02:30;8.70;;;2.90;;
49510;SDS011;35413;48.776;9.204;2022-12-20T08:04:57;7.10;;;3.25;;
49510;SDS011;35413;48.776;9.204;2022-12-20T08:07:23;5.80;;;3.40;;
49510;SDS011;35413;48.776;9.204;2022-12-20T08:09:49;7.28;;;3.00;;
49510;SDS011;35413;48.776;9.204;2022-12-20T08:12:16;5.60;;;3.28;;
49510;SDS011;35413;48.776;9.204;2022-12-20T08:14:42;8.25;;;3.05;;
49510;SDS011;35413;48.776;9.204;2022-12-20T08:17:08;8.70;;;3.72;;
49510;SDS011;35413;48.776;9.204;2022-12-20T08:19:35;7.28;;;3.78;;
49510;SDS011;35413;48.776;9.204;2022-12-20T08:22:03;7.20;;;2.90;;
49510;SDS011;35413;48.776;9.204;2022-12-20T08:24:29;7.40;;;3.13;;
49510;SDS011;35413;48.776;9.204;2022-12-20T08:26:55;9.23;;;3.63;;
49510;SDS011;35413;48.776;9.204;2022-12-20T08:29:21;8.55;;;4.22;;
49510;SDS011;35413;48.776;9.204;2022-12-20T08:31:47;7.10;;;3.25;;
49510;SDS011;35413;48.776;9.204;2022-12-20T08:34:13;8.48;;;3.80;;
49510;SDS011;35413;48.776;9.204;2022-12-20T08:36:39;5.38;;;3.35;;
49510;SDS011;35413;48.776;9.204;2022-12-20T08:39:05;6.15;;;2.95;;
49510;SDS011;35413;48.776;9.204;2022-12-20T08:41:34;6.38;;;3.00;;
49510;SDS011;35413;48.776;9.204;2022-12-20T08:44:01;5.40;;;3.15;;
49510;SDS011;35413;48.776;9.204;2022-12-20T08:46:27;6.63;;;3.28;;
49510;SDS011;35413;48.776;9.204;2022-12-20T08:48:53;8.48;;;3.30;;
49510;SDS011;35413;48.776;9.204;2022-12-20T08:51:19;8.40;;;2.95;;
49510;SDS011;35413;48.776;9.204;2022-12-20T08:53:45;7.38;;;3.28;;
49510;SDS011;35413;48.776;9.204;2022-12-20T08:56:17;5.15;;;3.33;;
49510;SDS011;35413;48.776;9.204;2022-12-20T08:58:46;5.10;;;3.03;;
49510;SDS011;35413;48.776;9.204;2022-12-20T09:01:15;9.85;;;3.65;;
49510;SDS011;35413;48.776;9.204;2022-12-20T09:03:43;5.22;;;2.60;;
49510;SDS011;35413;48.776;9.204;2022-12-20T09:06:10;4.70;;;3.10;;
49510;SDS011;35413;48.776;9.204;2022-12-20T09:08:37;5.25;;;2.90;;
49510;SDS011;35413;48.776;9.204;2022-12-20T09:11:11;6.80;;;3.20;;
49510;SDS011;35413;48.776;9.204;2022-12-20T09:13:39;8.20;;;2.90;;
49510;SDS011;35413;48.776;9.204;2022-12-20T09:16:06;9.30;;;3.83;;
49510;SDS011;35413;48.776;9.204;2022-12-20T09:18:32;5.10;;;2.85;;
49510;SDS011;35413;48.776;9.204;2022-12-20T09:20:59;5.05;;;3.25;;
49510;SDS011;35413;48.776;9.204;2022-12-20T09:23:25;6.30;;;4.18;;
49510;SDS011;35413;48.776;9.204;2022-12-20T09:25:51;6.07;;;3.08;;
49510;SDS011;35413;48.776;9.204;2022-12-20T09:28:17;5.65;;;3.50;;
49510;SDS011;35413;48.776;9.204;2022-12-20T09:30:44;6.03;;;3.17;;
49510;SDS011;35413;48.776;9.204;2022-12-20T09:33:10;4.22;;;2.72;;
49510;SDS011;35413;48.776;9.204;2022-12-20T09:35:36;6.18;;;3.45;;
49510;SDS011;35413;48.776;9.204;2022-12-20T09:38:08;6.30;;;3.60;;
49510;SDS011;35413;48.776;9.204;2022-12-20T09:40:34;5.55;;;2.97;;
49510;SDS011;35413;48.776;9.204;2022-12-20T09:43:02;6.63;;;3.13;;
49510;SDS011;35413;48.776;9.204;2022-12-20T09:45:29;4.38;;;3.38;;
49510;SDS011;35413;48.776;9.204;2022-12-20T09:47:57;9.43;;;3.30;;
49510;SDS011;35413;48.776;9.204;2022-12-20T09:50:28;4.80;;;3.15;;
49510;SDS011;35413;48.776;9.204;2022-12-20T09:53:36;6.78;;;2.92;;
49510;SDS011;35413;48.776;9.204;2022-12-20T09:58:21;4.55;;;2.75;;
49510;SDS011;35413;48.776;9.204;2022-12-20T10:00:48;6.47;;;3.20;;
49510;SDS011;35413;48.776;9.204;2022-12-20T10:03:22;5.82;;;3.28;;
49510;SDS011;35413;48.776;9.204;2022-12-20T10:08:44;6.95;;;2.75;;
49510;SDS011;35413;48.776;9.204;2022-12-20T10:16:16;4.65;;;3.08;;
49510;SDS011;35413;48.776;9.204;2022-12-20T10:18:54;5.28;;;3.22;;
49510;SDS011;35413;48.776;9.204;2022-12-20T10:21:29;5.38;;;3.28;;
49510;SDS011;35413;48.776;9.204;2022-12-20T10:24:00;4.65;;;2.88;;
49510;SDS011;35413;48.776;9.204;2022-12-20T10:26:26;4.82;;;3.60;;
49510;SDS011;35413;48.776;9.204;2022-12-20T10:28:53;6.97;;;3.55;;
49510;SDS011;35413;48.776;9.204;2022-12-20T10:31:19;5.07;;;2.72;;
49510;SDS011;35413;48.776;9.204;2022-12-20T10:33:45;7.10;;;3.65;;
49510;SDS011;35413;48.776;9.204;2022-12-20T10:36:22;4.78;;;2.97;;
49510;SDS011;35413;48.776;9.204;2022-12-20T10:38:51;9.05;;;3.67;;
49510;SDS011;35413;48.776;9.204;2022-12-20T10:41:18;6.18;;;3.08;;
49510;SDS011;35413;48.776;9.204;2022-12-20T10:43:46;6.72;;;3.72;;
49510;SDS011;35413;48.776;9.204;2022-12-20T10:46:13;6.18;;;3.83;;
49510;SDS011;35413;48.776;9.204;2022-12-20T10:48:43;4.60;;;3.05;;
49510;SDS011;35413;48.776;9.204;2022-12-20T10:53:50;5.63;;;3.08;;
49510;SDS011;35413;48.776;9.204;2022-12-20T10:56:23;5.82;;;3.25;;
49510;SDS011;35413;48.776;9.204;2022-12-20T10:58:54;3.95;;;2.60;;
49510;SDS011;35413;48.776;9.204;2022-12-20T11:01:21;5.75;;;3.40;;
49510;SDS011;35413;48.776;9.204;2022-12-20T11:03:49;8.00;;;3.63;;
49510;SDS011;35413;48.776;9.204;2022-12-20T11:06:16;8.55;;;3.28;;
49510;SDS011;35413;48.776;9.204;2022-12-20T11:08:42;9.23;;;4.45;;
49510;SDS011;35413;48.776;9.204;2022-12-20T11:13:41;9.30;;;3.72;;
49510;SDS011;35413;48.776;9.204;2022-12-20T11:39:46;37.28;;;16.33;;
49510;SDS011;35413;48.776;9.204;2022-12-20T11:42:31;33.42;;;16.02;;
49510;SDS011;35413;48.776;9.204;2022-12-20T11:47:44;32.85;;;16.52;;
49510;SDS011;35413;48.776;9.204;2022-12-20T11:50:19;27.20;;;13.80;;
49510;SDS011;35413;48.776;9.204;2022-12-20T11:52:51;31.75;;;14.32;;
49510;SDS011;35413;48.776;9.204;2022-12-20T11:55:35;28.55;;;13.40;;
49510;SDS011;35413;48.776;9.204;2022-12-20T11:58:10;27.40;;;13.00;;
49510;SDS011;35413;48.776;9.204;2022-12-20T12:00:37;24.10;;;11.57;;
49510;SDS011;35413;48.776;9.204;2022-12-20T12:03:12;24.38;;;11.68;;
49510;SDS011;35413;48.776;9.204;2022-12-20T12:05:44;22.80;;;10.48;;
49510;SDS011;35413;48.776;9.204;2022-12-20T12:08:13;15.55;;;8.60;;
49510;SDS011;35413;48.776;9.204;2022-12-20T12:10:42;8.73;;;5.10;;
49510;SDS011;35413;48.776;9.204;2022-12-20T12:13:12;8.77;;;4.82;;
49510;SDS011;35413;48.776;9.204;2022-12-20T12:18:22;10.18;;;5.43;;
49510;SDS011;35413;48.776;9.204;2022-12-20T12:20:52;11.65;;;6.00;;
49510;SDS011;35413;48.776;9.204;2022-12-20T12:23:30;8.82;;;5.15;;
49510;SDS011;35413;48.776;9.204;2022-12-20T12:26:00;10.07;;;5.43;;
49510;SDS011;35413;48.776;9.204;2022-12-20T12:28:27;11.68;;;5.47;;
49510;SDS011;35413;48.776;9.204;2022-12-20T12:30:55;9.13;;;4.78;;
49510;SDS011;35413;48.776;9.204;2022-12-20T12:33:23;10.57;;;4.70;;
49510;SDS011;35413;48.776;9.204;2022-12-20T12:35:56;9.88;;;4.85;;
49510;SDS011;35413;48.776;9.204;2022-12-20T12:38:33;9.10;;;5.57;;
49510;SDS011;35413;48.776;9.204;2022-12-20T12:46:07;8.52;;;4.25;;
49510;SDS011;35413;48.776;9.204;2022-12-20T12:48:36;9.02;;;4.93;;
49510;SDS011;35413;48.776;9.204;2022-12-20T12:51:04;6.75;;;3.90;;
49510;SDS011;35413;48.776;9.204;2022-12-20T12:55:56;9.02;;;4.70;;
49510;SDS011;35413;48.776;9.204;2022-12-20T13:01:45;9.23;;;5.05;;
49510;SDS011;35413;48.776;9.204;2022-12-20T13:03:43;9.98;;;4.55;;
49510;SDS011;35413;48.776;9.204;2022-12-20T13:11:27;10.07;;;4.70;;
49510;SDS011;35413;48.776;9.204;2022-12-20T13:16:38;9.32;;;4.20;;
49510;SDS011;35413;48.776;9.204;2022-12-20T13:19:12;7.00;;;3.97;;
49510;SDS011;35413;48.776;9.204;2022-12-20T13:21:39;8.50;;;4.63;;
49510;SDS011;35413;48.776;9.204;2022-12-20T13:24:28;7.47;;;3.75;;
49510;SDS011;35413;48.776;9.204;2022-12-20T13:27:00;8.13;;;3.92;;
49510;SDS011;35413;48.776;9.204;2022-12-20T13:29:27;7.93;;;4.25;;
49510;SDS011;35413;48.776;9.204;2022-12-20T13:31:57;7.05;;;4.20;;
49510;SDS011;35413;48.776;9.204;2022-12-20T13:34:56;10.13;;;4.07;;
49510;SDS011;35413;48.776;9.204;2022-12-20T13:39:45;8.27;;;4.28;;
49510;SDS011;35413;48.776;9.204;2022-12-20T13:42:21;6.00;;;3.67;;
49510;SDS011;35413;48.776;9.204;2022-12-20T13:44:51;7.97;;;3.83;;
49510;SDS011;35413;48.776;9.204;2022-12-20T13:47:22;7.43;;;3.85;;
49510;SDS011;35413;48.776;9.204;2022-12-20T13:49:51;10.50;;;4.72;;
49510;SDS011;35413;48.776;9.204;2022-12-20T13:52:26;9.35;;;3.92;;
49510;SDS011;35413;48.776;9.204;2022-12-20T13:54:54;8.45;;;4.03;;
49510;SDS011;35413;48.776;9.204;2022-12-20T13:57:24;7.63;;;3.95;;
49510;SDS011;35413;48.776;9.204;2022-12-20T13:59:52;10.70;;;5.07;;
49510;SDS011;35413;48.776;9.204;2022-12-20T14:02:23;9.52;;;4.85;;
49510;SDS011;35413;48.776;9.204;2022-12-20T14:04:56;8.52;;;4.20;;
49510;SDS011;35413;48.776;9.204;2022-12-20T14:07:23;7.07;;;3.65;;
49510;SDS011;35413;48.776;9.204;2022-12-20T14:09:58;6.63;;;4.32;;
49510;SDS011;35413;48.776;9.204;2022-12-20T14:12:26;7.07;;;4.20;;
49510;SDS011;35413;48.776;9.204;2022-12-20T14:14:53;8.85;;;4.05;;
49510;SDS011;35413;48.776;9.204;2022-12-20T14:17:29;6.88;;;4.03;;
49510;SDS011;35413;48.776;9.204;2022-12-20T14:22:34;5.70;;;3.42;;
49510;SDS011;35413;48.776;9.204;2022-12-20T14:25:01;7.82;;;4.35;;
49510;SDS011;35413;48.776;9.204;2022-12-20T14:27:29;6.70;;;3.08;;
49510;SDS011;35413;48.776;9.204;2022-12-20T14:29:57;5.63;;;3.67;;
49510;SDS011;35413;48.776;9.204;2022-12-20T14:32:24;9.00;;;3.60;;
49510;SDS011;35413;48.776;9.204;2022-12-20T14:34:50;6.70;;;4.05;;
49510;SDS011;35413;48.776;9.204;2022-12-20T14:37:33;6.45;;;3.60;;
49510;SDS011;35413;48.776;9.204;2022-12-20T14:40:13;6.32;;;3.42;;
49510;SDS011;35413;48.776;9.204;2022-12-20T14:42:39;5.72;;;3.60;;
49510;SDS011;35413;48.776;9.204;2022-12-20T14:47:35;6.93;;;3.53;;
49510;SDS011;35413;48.776;9.204;2022-12-20T14:50:03;5.75;;;3.70;;
49510;SDS011;35413;48.776;9.204;2022-12-20T14:54:59;6.53;;;3.63;;
49510;SDS011;35413;48.776;9.204;2022-12-20T14:57:37;5.93;;;3.58;;
49510;SDS011;35413;48.776;9.204;2022-12-20T15:10:42;6.38;;;3.42;;
49510;SDS011;35413;48.776;9.204;2022-12-20T15:13:13;6.32;;;3.95;;
49510;SDS011;35413;48.776;9.204;2022-12-20T15:15:39;5.97;;;3.88;;
49510;SDS011;35413;48.776;9.204;2022-12-20T15:18:12;7.18;;;4.15;;
49510;SDS011;35413;48.776;9.204;2022-12-20T15:20:39;5.72;;;3.47;;
49510;SDS011;35413;48.776;9.204;2022-12-20T15:23:07;6.72;;;3.63;;
49510;SDS011;35413;48.776;9.204;2022-12-20T15:25:33;4.63;;;3.00;;
49510;SDS011;35413;48.776;9.204;2022-12-20T15:28:04;5.78;;;3.60;;
49510;SDS011;35413;48.776;9.204;2022-12-20T15:30:30;6.00;;;3.08;;
49510;SDS011;35413;48.776;9.204;2022-12-20T15:32:56;5.90;;;3.45;;
49510;SDS011;35413;48.776;9.204;2022-12-20T15:35:22;5.75;;;3.20;;
49510;SDS011;35413;48.776;9.204;2022-12-20T15:37:48;6.55;;;3.88;;
49510;SDS011;35413;48.776;9.204;2022-12-20T15:40:14;7.57;;;3.22;;
49510;SDS011;35413;48.776;9.204;2022-12-20T15:42:41;5.22;;;3.00;;
49510;SDS011;35413;48.776;9.204;2022-12-20T15:45:13;5.95;;;3.60;;
49510;SDS011;35413;48.776;9.204;2022-12-20T15:47:39;7.10;;;3.03;;
49510;SDS011;35413;48.776;9.204;2022-12-20T15:50:06;10.20;;;3.80;;
49510;SDS011;35413;48.776;9.204;2022-12-20T15:52:33;5.38;;;3.10;;
49510;SDS011;35413;48.776;9.204;2022-12-20T15:54:59;6.07;;;3.10;;
49510;SDS011;35413;48.776;9.204;2022-12-20T15:57:25;7.50;;;3.55;;
49510;SDS011;35413;48.776;9.204;2022-12-20T15:59:52;7.13;;;3.00;;
49510;SDS011;35413;48.776;9.204;2022-12-20T16:02:23;6.55;;;3.60;;
49510;SDS011;35413;48.776;9.204;2022-12-20T16:04:50;4.88;;;3.10;;
49510;SDS011;35413;48.776;9.204;2022-12-20T16:07:16;5.60;;;3.20;;
49510;SDS011;35413;48.776;9.204;2022-12-20T16:09:42;7.57;;;3.33;;
49510;SDS011;35413;48.776;9.204;2022-12-20T16:12:15;7.15;;;3.45;;
49510;SDS011;35413;48.776;9.204;2022-12-20T16:14:42;5.20;;;3.30;;
49510;SDS011;35413;48.776;9.204;2022-12-20T16:17:11;6.10;;;3.35;;
49510;SDS011;35413;48.776;9.204;2022-12-20T16:19:38;4.88;;;3.60;;
49510;SDS011;35413;48.776;9.204;2022-12-20T16:22:04;5.15;;;3.17;;
49510;SDS011;35413;48.776;9.204;2022-12-20T16:24:30;5.70;;;3.38;;
49510;SDS011;35413;48.776;9.204;2022-12-20T16:26:56;7.47;;;2.88;;
49510;SDS011;35413;48.776;9.204;2022-12-20T16:29:22;4.03;;;2.85;;